sensor_id;sensor_type;location;lat;lon;timestamp;temperature;humidity
43946;DHT22;29599;51.196;4.428;2022-12-20T00:02:07;9.80;99.90
43946;DHT22;29599;51.196;4.428;2022-12-20T00:04:33;9.90;99.90
43946;DHT22;29599;51.196;4.428;2022-12-20T00:06:59;9.90;99.90
43946;DHT22;29599;51.196;4.428;2022-12-20T00:09:24;9.90;99.90
43946;DHT22;29599;51.196;4.428;2022-12-20T00:11:50;9.90;99.90
43946;DHT22;29599;51.196;4.428;2022-12-20T00:14:16;10.00;99.90
43946;DHT22;29599;51.196;4.428;2022-12-20T00:16:42;10.00;99.90
43946;DHT22;29599;51.196;4.428;2022-12-20T00:19:09;9.90;99.90
43946;DHT22;29599;51.196;4.428;2022-12-20T00:21:36;9.90;99.90
43946;DHT22;29599;51.196;4.428;2022-12-20T00:24:03;9.90;99.90
43946;DHT22;29599;51.196;4.428;2022-12-20T00:26:31;9.90;99.90
43946;DHT22;29599;51.196;4.428;2022-12-20T00:28:57;9.90;99.90
43946;DHT22;29599;51.196;4.428;2022-12-20T00:31:25;9.90;99.90
43946;DHT22;29599;51.196;4.428;2022-12-20T00:33:52;10.00;99.90
43946;DHT22;29599;51.196;4.428;2022-12-20T00:36:19;10.00;99.90
43946;DHT22;29599;51.196;4.428;2022-12-20T00:38:46;9.90;99.90
43946;DHT22;29599;51.196;4.428;2022-12-20T00:41:14;9.90;99.90
43946;DHT22;29599;51.196;4.428;2022-12-20T00:43:40;9.90;99.90
43946;DHT22;29599;51.196;4.428;2022-12-20T00:46:07;9.80;99.90
43946;DHT22;29599;51.196;4.428;2022-12-20T00:48:34;9.80;99.90
43946;DHT22;29599;51.196;4.428;2022-12-20T00:51:01;9.80;99.90
43946;DHT22;29599;51.196;4.428;2022-12-20T00:53:27;9.80;99.90
43946;DHT22;29599;51.196;4.428;2022-12-20T00:55:53;9.70;99.90
43946;DHT22;29599;51.196;4.428;2022-12-20T00:58:19;9.70;99.90
43946;DHT22;29599;51.196;4.428;2022-12-20T01:00:46;9.70;99.90
43946;DHT22;29599;51.196;4.428;2022-12-20T01:03:12;9.70;99.90
43946;DHT22;29599;51.196;4.428;2022-12-20T01:05:37;9.70;99.90
43946;DHT22;29599;51.196;4.428;2022-12-20T01:08:04;9.70;99.90
43946;DHT22;29599;51.196;4.428;2022-12-20T01:10:31;9.80;99.90
43946;DHT22;29599;51.196;4.428;2022-12-20T01:12:57;9.80;99.90
43946;DHT22;29599;51.196;4.428;2022-12-20T01:15:22;9.80;99.90
43946;DHT22;29599;51.196;4.428;2022-12-20T01:17:48;9.80;99.90
43946;DHT22;29599;51.196;4.428;2022-12-20T01:20:14;9.70;99.90
43946;DHT22;29599;51.196;4.428;2022-12-20T01:22:40;9.70;99.90
43946;DHT22;29599;51.196;4.428;2022-12-20T01:25:06;9.70;99.90
43946;DHT22;29599;51.196;4.428;2022-12-20T01:27:31;9.70;99.90
43946;DHT22;29599;51.196;4.428;2022-12-20T01:29:57;9.70;99.90
43946;DHT22;29599;51.196;4.428;2022-12-20T01:32:23;9.80;99.90
43946;DHT22;29599;51.196;4.428;2022-12-20T01:34:49;9.80;99.90
43946;DHT22;29599;51.196;4.428;2022-12-20T01:37:15;9.80;99.90
43946;DHT22;29599;51.196;4.428;2022-12-20T01:39:40;9.80;99.90
43946;DHT22;29599;51.196;4.428;2022-12-20T01:42:12;9.80;99.90
43946;DHT22;29599;51.196;4.428;2022-12-20T01:47:07;9.80;99.90
43946;DHT22;29599;51.196;4.428;2022-12-20T01:49:38;9.80;99.90
43946;DHT22;29599;51.196;4.428;2022-12-20T01:52:18;9.80;99.90
43946;DHT22;29599;51.196;4.428;2022-12-20T01:54:49;9.80;99.90
43946;DHT22;29599;51.196;4.428;2022-12-20T01:57:23;9.80;99.90
43946;DHT22;29599;51.196;4.428;2022-12-20T01:59:52;9.80;99.90
43946;DHT22;29599;51.196;4.428;2022-12-20T02:02:18;9.80;99.90
43946;DHT22;29599;51.196;4.428;2022-12-20T02:04:43;9.80;99.90
43946;DHT22;29599;51.196;4.428;2022-12-20T02:07:11;9.90;99.90
43946;DHT22;29599;51.196;4.428;2022-12-20T02:09:38;9.90;99.90
43946;DHT22;29599;51.196;4.428;2022-12-20T02:12:22;9.90;99.90
43946;DHT22;29599;51.196;4.428;2022-12-20T02:22:54;9.90;99.90
43946;DHT22;29599;51.196;4.428;2022-12-20T02:28:33;9.90;99.90
43946;DHT22;29599;51.196;4.428;2022-12-20T02:31:09;9.90;99.90
43946;DHT22;29599;51.196;4.428;2022-12-20T02:33:38;10.00;99.90
43946;DHT22;29599;51.196;4.428;2022-12-20T02:36:06;10.00;99.90
43946;DHT22;29599;51.196;4.428;2022-12-20T02:38:34;9.90;99.90
43946;DHT22;29599;51.196;4.428;2022-12-20T02:41:05;10.00;99.90
43946;DHT22;29599;51.196;4.428;2022-12-20T02:43:32;10.00;99.90
43946;DHT22;29599;51.196;4.428;2022-12-20T02:46:18;10.00;99.90
43946;DHT22;29599;51.196;4.428;2022-12-20T02:48:46;10.00;99.90
43946;DHT22;29599;51.196;4.428;2022-12-20T02:51:14;10.00;99.90
43946;DHT22;29599;51.196;4.428;2022-12-20T02:53:41;10.10;99.90
43946;DHT22;29599;51.196;4.428;2022-12-20T02:59:02;10.00;99.90
43946;DHT22;29599;51.196;4.428;2022-12-20T03:01:38;10.00;99.90
43946;DHT22;29599;51.196;4.428;2022-12-20T03:04:05;10.10;99.90
43946;DHT22;29599;51.196;4.428;2022-12-20T03:06:32;10.20;99.90
43946;DHT22;29599;51.196;4.428;2022-12-20T03:08:57;10.20;99.90
43946;DHT22;29599;51.196;4.428;2022-12-20T03:11:23;10.20;99.90
43946;DHT22;29599;51.196;4.428;2022-12-20T03:13:49;10.20;99.90
43946;DHT22;29599;51.196;4.428;2022-12-20T03:16:15;10.30;99.90
43946;DHT22;29599;51.196;4.428;2022-12-20T03:18:40;10.30;99.90
43946;DHT22;29599;51.196;4.428;2022-12-20T03:21:06;10.30;99.90
43946;DHT22;29599;51.196;4.428;2022-12-20T03:23:32;10.30;99.90
43946;DHT22;29599;51.196;4.428;2022-12-20T03:25:57;10.30;99.90
43946;DHT22;29599;51.196;4.428;2022-12-20T03:28:23;10.30;99.90
43946;DHT22;29599;51.196;4.428;2022-12-20T03:30:48;10.30;99.90
43946;DHT22;29599;51.196;4.428;2022-12-20T03:33:14;10.40;99.90
43946;DHT22;29599;51.196;4.428;2022-12-20T03:35:40;10.40;99.90
43946;DHT22;29599;51.196;4.428;2022-12-20T03:38:06;10.40;99.90
43946;DHT22;29599;51.196;4.428;2022-12-20T03:40:31;10.40;99.90
43946;DHT22;29599;51.196;4.428;2022-12-20T03:42:57;10.40;99.90
43946;DHT22;29599;51.196;4.428;2022-12-20T03:45:23;10.40;99.90
43946;DHT22;29599;51.196;4.428;2022-12-20T03:47:48;10.40;99.90
43946;DHT22;29599;51.196;4.428;2022-12-20T03:50:14;10.40;99.90
43946;DHT22;29599;51.196;4.428;2022-12-20T03:52:40;10.30;99.90
43946;DHT22;29599;51.196;4.428;2022-12-20T03:55:06;10.40;99.90
43946;DHT22;29599;51.196;4.428;2022-12-20T03:57:32;10.40;99.90
43946;DHT22;29599;51.196;4.428;2022-12-20T03:59:57;10.40;99.90
43946;DHT22;29599;51.196;4.428;2022-12-20T04:02:23;10.40;99.90
43946;DHT22;29599;51.196;4.428;2022-12-20T04:04:48;10.40;99.90
43946;DHT22;29599;51.196;4.428;2022-12-20T04:07:14;10.40;99.90
43946;DHT22;29599;51.196;4.428;2022-12-20T04:09:40;10.50;99.90
43946;DHT22;29599;51.196;4.428;2022-12-20T04:12:06;10.50;99.90
43946;DHT22;29599;51.196;4.428;2022-12-20T04:14:31;10.40;99.90
43946;DHT22;29599;51.196;4.428;2022-12-20T04:16:57;10.40;99.90
43946;DHT22;29599;51.196;4.428;2022-12-20T04:19:23;10.50;99.90
43946;DHT22;29599;51.196;4.428;2022-12-20T04:21:49;10.50;99.90
43946;DHT22;29599;51.196;4.428;2022-12-20T04:24:14;10.60;99.90
43946;DHT22;29599;51.196;4.428;2022-12-20T04:26:40;10.60;99.90
43946;DHT22;29599;51.196;4.428;2022-12-20T04:29:06;10.60;99.90
43946;DHT22;29599;51.196;4.428;2022-12-20T04:31:31;10.50;99.90
43946;DHT22;29599;51.196;4.428;2022-12-20T04:33:57;10.50;99.90
43946;DHT22;29599;51.196;4.428;2022-12-20T04:36:22;10.50;99.90
43946;DHT22;29599;51.196;4.428;2022-12-20T04:38:48;10.50;99.90
43946;DHT22;29599;51.196;4.428;2022-12-20T04:41:14;10.50;99.90
43946;DHT22;29599;51.196;4.428;2022-12-20T04:43:54;10.50;99.90
43946;DHT22;29599;51.196;4.428;2022-12-20T04:46:21;10.50;99.90
43946;DHT22;29599;51.196;4.428;2022-12-20T04:48:47;10.50;99.90
43946;DHT22;29599;51.196;4.428;2022-12-20T04:51:14;10.50;99.90
43946;DHT22;29599;51.196;4.428;2022-12-20T04:53:39;10.50;99.90
43946;DHT22;29599;51.196;4.428;2022-12-20T04:56:26;10.40;99.90
43946;DHT22;29599;51.196;4.428;2022-12-20T04:58:53;10.50;99.90
43946;DHT22;29599;51.196;4.428;2022-12-20T05:01:20;10.50;99.90
43946;DHT22;29599;51.196;4.428;2022-12-20T05:03:46;10.50;99.90
43946;DHT22;29599;51.196;4.428;2022-12-20T05:06:12;10.50;99.90
43946;DHT22;29599;51.196;4.428;2022-12-20T05:08:38;10.50;99.90
43946;DHT22;29599;51.196;4.428;2022-12-20T05:11:05;10.50;99.90
43946;DHT22;29599;51.196;4.428;2022-12-20T05:13:31;10.40;99.90
43946;DHT22;29599;51.196;4.428;2022-12-20T05:15:57;10.40;99.90
43946;DHT22;29599;51.196;4.428;2022-12-20T05:18:23;10.40;99.90
43946;DHT22;29599;51.196;4.428;2022-12-20T05:20:50;10.50;99.90
43946;DHT22;29599;51.196;4.428;2022-12-20T05:23:36;10.50;99.90
43946;DHT22;29599;51.196;4.428;2022-12-20T05:26:21;10.60;99.90
43946;DHT22;29599;51.196;4.428;2022-12-20T05:28:47;10.50;99.90
43946;DHT22;29599;51.196;4.428;2022-12-20T05:31:13;10.50;99.90
43946;DHT22;29599;51.196;4.428;2022-12-20T05:33:38;10.50;99.90
43946;DHT22;29599;51.196;4.428;2022-12-20T05:36:04;10.40;99.90
43946;DHT22;29599;51.196;4.428;2022-12-20T05:38:30;10.40;99.90
43946;DHT22;29599;51.196;4.428;2022-12-20T05:40:56;10.40;99.90
43946;DHT22;29599;51.196;4.428;2022-12-20T05:43:22;10.40;99.90
43946;DHT22;29599;51.196;4.428;2022-12-20T05:45:52;10.30;99.90
43946;DHT22;29599;51.196;4.428;2022-12-20T05:48:19;10.30;99.90
43946;DHT22;29599;51.196;4.428;2022-12-20T05:50:45;10.30;99.90
43946;DHT22;29599;51.196;4.428;2022-12-20T05:53:12;10.40;99.90
43946;DHT22;29599;51.196;4.428;2022-12-20T05:55:44;10.30;99.90
43946;DHT22;29599;51.196;4.428;2022-12-20T05:58:11;10.30;99.90
43946;DHT22;29599;51.196;4.428;2022-12-20T06:00:39;10.30;99.90
43946;DHT22;29599;51.196;4.428;2022-12-20T06:03:05;10.30;99.90
43946;DHT22;29599;51.196;4.428;2022-12-20T06:05:31;10.30;99.90
43946;DHT22;29599;51.196;4.428;2022-12-20T06:07:56;10.30;99.90
43946;DHT22;29599;51.196;4.428;2022-12-20T06:10:22;10.30;99.90
43946;DHT22;29599;51.196;4.428;2022-12-20T06:12:48;10.30;99.90
43946;DHT22;29599;51.196;4.428;2022-12-20T06:15:14;10.30;99.90
43946;DHT22;29599;51.196;4.428;2022-12-20T06:17:40;10.30;99.90
43946;DHT22;29599;51.196;4.428;2022-12-20T06:20:06;10.30;99.90
43946;DHT22;29599;51.196;4.428;2022-12-20T06:22:32;10.40;99.90
43946;DHT22;29599;51.196;4.428;2022-12-20T06:24:57;10.40;99.90
43946;DHT22;29599;51.196;4.428;2022-12-20T06:27:23;10.40;99.90
43946;DHT22;29599;51.196;4.428;2022-12-20T06:29:49;10.40;99.90
43946;DHT22;29599;51.196;4.428;2022-12-20T06:32:19;10.40;99.90
43946;DHT22;29599;51.196;4.428;2022-12-20T06:34:45;10.40;99.90
43946;DHT22;29599;51.196;4.428;2022-12-20T06:37:11;10.40;99.90
43946;DHT22;29599;51.196;4.428;2022-12-20T06:39:36;10.50;99.90
43946;DHT22;29599;51.196;4.428;2022-12-20T06:42:02;10.50;99.90
43946;DHT22;29599;51.196;4.428;2022-12-20T06:44:28;10.50;99.90
43946;DHT22;29599;51.196;4.428;2022-12-20T06:46:53;10.50;99.90
43946;DHT22;29599;51.196;4.428;2022-12-20T06:49:19;10.50;99.90
43946;DHT22;29599;51.196;4.428;2022-12-20T06:51:46;10.50;99.90
43946;DHT22;29599;51.196;4.428;2022-12-20T06:54:12;10.50;99.90
43946;DHT22;29599;51.196;4.428;2022-12-20T06:56:38;10.60;99.90
43946;DHT22;29599;51.196;4.428;2022-12-20T06:59:04;10.60;99.90
43946;DHT22;29599;51.196;4.428;2022-12-20T07:01:30;10.60;99.90
43946;DHT22;29599;51.196;4.428;2022-12-20T07:03:56;10.70;99.90
43946;DHT22;29599;51.196;4.428;2022-12-20T07:06:21;10.70;99.90
43946;DHT22;29599;51.196;4.428;2022-12-20T07:08:47;10.70;99.90
43946;DHT22;29599;51.196;4.428;2022-12-20T07:11:13;10.60;99.90
43946;DHT22;29599;51.196;4.428;2022-12-20T07:13:38;10.60;99.90
43946;DHT22;29599;51.196;4.428;2022-12-20T07:16:04;10.60;99.90
43946;DHT22;29599;51.196;4.428;2022-12-20T07:18:30;10.60;99.90
43946;DHT22;29599;51.196;4.428;2022-12-20T07:21:00;10.60;99.90
43946;DHT22;29599;51.196;4.428;2022-12-20T07:23:27;10.50;99.90
43946;DHT22;29599;51.196;4.428;2022-12-20T07:25:53;10.40;99.90
43946;DHT22;29599;51.196;4.428;2022-12-20T07:28:19;10.40;99.90
43946;DHT22;29599;51.196;4.428;2022-12-20T07:30:45;10.40;99.90
43946;DHT22;29599;51.196;4.428;2022-12-20T07:33:10;10.30;99.90
43946;DHT22;29599;51.196;4.428;2022-12-20T07:35:36;10.30;99.90
43946;DHT22;29599;51.196;4.428;2022-12-20T07:38:02;10.20;99.90
43946;DHT22;29599;51.196;4.428;2022-12-20T07:40:27;10.20;99.90
43946;DHT22;29599;51.196;4.428;2022-12-20T07:42:53;10.10;99.90
43946;DHT22;29599;51.196;4.428;2022-12-20T07:45:18;10.10;99.90
43946;DHT22;29599;51.196;4.428;2022-12-20T07:47:44;10.10;99.90
43946;DHT22;29599;51.196;4.428;2022-12-20T07:50:10;10.10;99.90
43946;DHT22;29599;51.196;4.428;2022-12-20T07:52:36;10.00;99.90
43946;DHT22;29599;51.196;4.428;2022-12-20T07:55:04;10.00;99.90
43946;DHT22;29599;51.196;4.428;2022-12-20T07:57:38;10.00;99.90
43946;DHT22;29599;51.196;4.428;2022-12-20T08:00:08;9.90;99.90
43946;DHT22;29599;51.196;4.428;2022-12-20T08:02:46;9.90;99.90
43946;DHT22;29599;51.196;4.428;2022-12-20T08:05:13;9.90;99.90
43946;DHT22;29599;51.196;4.428;2022-12-20T08:07:40;9.90;99.90
43946;DHT22;29599;51.196;4.428;2022-12-20T08:10:08;9.90;99.90
43946;DHT22;29599;51.196;4.428;2022-12-20T08:12:35;9.90;99.90
43946;DHT22;29599;51.196;4.428;2022-12-20T08:15:03;9.80;99.90
43946;DHT22;29599;51.196;4.428;2022-12-20T08:17:28;9.80;99.90
43946;DHT22;29599;51.196;4.428;2022-12-20T08:19:54;9.80;99.90
43946;DHT22;29599;51.196;4.428;2022-12-20T08:22:21;9.80;99.90
43946;DHT22;29599;51.196;4.428;2022-12-20T08:24:47;9.80;99.90
43946;DHT22;29599;51.196;4.428;2022-12-20T08:27:13;9.70;99.90
43946;DHT22;29599;51.196;4.428;2022-12-20T08:29:39;9.70;99.90
43946;DHT22;29599;51.196;4.428;2022-12-20T08:32:05;9.70;99.90
43946;DHT22;29599;51.196;4.428;2022-12-20T08:34:31;9.70;99.90
43946;DHT22;29599;51.196;4.428;2022-12-20T08:36:56;9.70;99.90
43946;DHT22;29599;51.196;4.428;2022-12-20T08:39:22;9.70;99.90
43946;DHT22;29599;51.196;4.428;2022-12-20T08:41:47;9.70;99.90
43946;DHT22;29599;51.196;4.428;2022-12-20T08:44:13;9.70;99.90
43946;DHT22;29599;51.196;4.428;2022-12-20T08:46:38;9.60;99.90
43946;DHT22;29599;51.196;4.428;2022-12-20T08:49:05;9.70;99.90
43946;DHT22;29599;51.196;4.428;2022-12-20T08:51:31;9.70;99.90
43946;DHT22;29599;51.196;4.428;2022-12-20T08:53:57;9.70;99.90
43946;DHT22;29599;51.196;4.428;2022-12-20T08:56:22;9.70;99.90
43946;DHT22;29599;51.196;4.428;2022-12-20T08:58:48;9.70;99.90
43946;DHT22;29599;51.196;4.428;2022-12-20T09:01:17;9.70;99.90
43946;DHT22;29599;51.196;4.428;2022-12-20T09:03:43;9.70;99.90
43946;DHT22;29599;51.196;4.428;2022-12-20T09:06:14;9.70;99.90
43946;DHT22;29599;51.196;4.428;2022-12-20T09:08:40;9.70;99.90
43946;DHT22;29599;51.196;4.428;2022-12-20T09:11:12;9.70;99.90
43946;DHT22;29599;51.196;4.428;2022-12-20T09:13:39;9.70;99.90
43946;DHT22;29599;51.196;4.428;2022-12-20T09:16:06;9.70;99.90
43946;DHT22;29599;51.196;4.428;2022-12-20T09:18:32;9.70;99.90
43946;DHT22;29599;51.196;4.428;2022-12-20T09:20:59;9.80;99.90
43946;DHT22;29599;51.196;4.428;2022-12-20T09:23:26;9.80;99.90
43946;DHT22;29599;51.196;4.428;2022-12-20T09:25:52;9.80;99.90
43946;DHT22;29599;51.196;4.428;2022-12-20T09:28:17;9.80;99.90
43946;DHT22;29599;51.196;4.428;2022-12-20T09:30:44;9.80;99.90
43946;DHT22;29599;51.196;4.428;2022-12-20T09:33:10;9.80;99.90
43946;DHT22;29599;51.196;4.428;2022-12-20T09:35:35;9.90;99.90
43946;DHT22;29599;51.196;4.428;2022-12-20T09:38:01;9.90;99.90
43946;DHT22;29599;51.196;4.428;2022-12-20T09:40:29;9.90;99.90
43946;DHT22;29599;51.196;4.428;2022-12-20T09:42:57;9.90;99.90
43946;DHT22;29599;51.196;4.428;2022-12-20T09:45:28;9.90;99.90
43946;DHT22;29599;51.196;4.428;2022-12-20T09:47:55;9.90;99.90
43946;DHT22;29599;51.196;4.428;2022-12-20T09:50:46;9.90;99.90
43946;DHT22;29599;51.196;4.428;2022-12-20T09:53:35;9.90;99.90
43946;DHT22;29599;51.196;4.428;2022-12-20T09:56:15;9.90;99.90
43946;DHT22;29599;51.196;4.428;2022-12-20T10:01:21;9.90;99.90
43946;DHT22;29599;51.196;4.428;2022-12-20T10:03:47;9.90;99.90
43946;DHT22;29599;51.196;4.428;2022-12-20T10:08:59;9.80;99.90
43946;DHT22;29599;51.196;4.428;2022-12-20T10:11:35;9.90;99.90
43946;DHT22;29599;51.196;4.428;2022-12-20T10:16:54;9.80;99.90
43946;DHT22;29599;51.196;4.428;2022-12-20T10:24:50;9.90;99.90
43946;DHT22;29599;51.196;4.428;2022-12-20T10:27:19;9.90;99.90
43946;DHT22;29599;51.196;4.428;2022-12-20T10:29:47;9.90;99.90
43946;DHT22;29599;51.196;4.428;2022-12-20T10:32:21;9.90;99.90
43946;DHT22;29599;51.196;4.428;2022-12-20T10:37:21;9.90;99.90
43946;DHT22;29599;51.196;4.428;2022-12-20T10:39:49;9.90;99.90
43946;DHT22;29599;51.196;4.428;2022-12-20T10:42:29;9.90;99.90
43946;DHT22;29599;51.196;4.428;2022-12-20T10:44:57;9.80;99.90
43946;DHT22;29599;51.196;4.428;2022-12-20T10:47:44;9.90;99.90
43946;DHT22;29599;51.196;4.428;2022-12-20T10:50:19;9.80;99.90
43946;DHT22;29599;51.196;4.428;2022-12-20T10:55:38;9.90;99.90
43946;DHT22;29599;51.196;4.428;2022-12-20T11:00:37;9.90;99.90
43946;DHT22;29599;51.196;4.428;2022-12-20T11:03:21;9.90;99.90
43946;DHT22;29599;51.196;4.428;2022-12-20T11:08:20;9.90;99.90
43946;DHT22;29599;51.196;4.428;2022-12-20T11:10:48;9.90;99.90
43946;DHT22;29599;51.196;4.428;2022-12-20T11:13:23;9.90;99.90
43946;DHT22;29599;51.196;4.428;2022-12-20T11:15:51;9.90;99.90
43946;DHT22;29599;51.196;4.428;2022-12-20T11:23:35;10.00;99.90
43946;DHT22;29599;51.196;4.428;2022-12-20T11:26:45;10.00;99.90
43946;DHT22;29599;51.196;4.428;2022-12-20T11:35:26;9.90;99.90
43946;DHT22;29599;51.196;4.428;2022-12-20T11:38:37;9.90;99.90
43946;DHT22;29599;51.196;4.428;2022-12-20T11:41:24;9.90;99.90
43946;DHT22;29599;51.196;4.428;2022-12-20T11:44:23;9.90;99.90
43946;DHT22;29599;51.196;4.428;2022-12-20T11:52:49;10.00;99.90
43946;DHT22;29599;51.196;4.428;2022-12-20T11:55:25;9.90;99.90
43946;DHT22;29599;51.196;4.428;2022-12-20T12:00:17;9.90;99.90
43946;DHT22;29599;51.196;4.428;2022-12-20T12:02:50;9.90;99.90
43946;DHT22;29599;51.196;4.428;2022-12-20T12:05:25;9.90;99.90
43946;DHT22;29599;51.196;4.428;2022-12-20T12:07:57;9.90;99.90
43946;DHT22;29599;51.196;4.428;2022-12-20T12:10:29;9.90;99.90
43946;DHT22;29599;51.196;4.428;2022-12-20T12:13:05;9.90;99.90
43946;DHT22;29599;51.196;4.428;2022-12-20T12:15:46;9.90;99.90
43946;DHT22;29599;51.196;4.428;2022-12-20T12:18:18;9.90;99.90
43946;DHT22;29599;51.196;4.428;2022-12-20T12:21:12;9.90;99.90
43946;DHT22;29599;51.196;4.428;2022-12-20T12:24:03;9.80;99.90
43946;DHT22;29599;51.196;4.428;2022-12-20T12:26:34;9.80;99.90
43946;DHT22;29599;51.196;4.428;2022-12-20T12:29:14;9.80;99.90
43946;DHT22;29599;51.196;4.428;2022-12-20T12:40:12;9.80;99.90
43946;DHT22;29599;51.196;4.428;2022-12-20T12:45:46;9.80;99.90
43946;DHT22;29599;51.196;4.428;2022-12-20T12:50:56;9.80;99.90
43946;DHT22;29599;51.196;4.428;2022-12-20T12:53:34;9.80;99.90
43946;DHT22;29599;51.196;4.428;2022-12-20T13:01:51;9.80;99.90
43946;DHT22;29599;51.196;4.428;2022-12-20T13:06:55;9.80;99.90
43946;DHT22;29599;51.196;4.428;2022-12-20T13:11:51;9.80;99.90
43946;DHT22;29599;51.196;4.428;2022-12-20T13:16:47;9.80;99.90
43946;DHT22;29599;51.196;4.428;2022-12-20T13:19:35;9.80;99.90
43946;DHT22;29599;51.196;4.428;2022-12-20T13:24:53;9.80;99.90
43946;DHT22;29599;51.196;4.428;2022-12-20T13:27:40;9.80;99.90
43946;DHT22;29599;51.196;4.428;2022-12-20T13:40:44;9.80;99.90
43946;DHT22;29599;51.196;4.428;2022-12-20T13:43:23;9.80;99.90
43946;DHT22;29599;51.196;4.428;2022-12-20T13:51:18;9.80;99.90
43946;DHT22;29599;51.196;4.428;2022-12-20T13:56:36;9.80;99.90
43946;DHT22;29599;51.196;4.428;2022-12-20T13:59:07;9.80;99.90
43946;DHT22;29599;51.196;4.428;2022-12-20T14:01:50;9.70;99.90
43946;DHT22;29599;51.196;4.428;2022-12-20T14:04:18;9.80;99.90
43946;DHT22;29599;51.196;4.428;2022-12-20T14:06:58;9.80;99.90
43946;DHT22;29599;51.196;4.428;2022-12-20T14:09:36;9.80;99.90
43946;DHT22;29599;51.196;4.428;2022-12-20T14:12:04;9.70;99.90
43946;DHT22;29599;51.196;4.428;2022-12-20T14:14:35;9.70;99.90
43946;DHT22;29599;51.196;4.428;2022-12-20T14:17:24;9.70;99.90
43946;DHT22;29599;51.196;4.428;2022-12-20T14:25:14;9.70;99.90
43946;DHT22;29599;51.196;4.428;2022-12-20T14:27:40;9.70;99.90
43946;DHT22;29599;51.196;4.428;2022-12-20T14:30:23;9.70;99.90
43946;DHT22;29599;51.196;4.428;2022-12-20T14:32:50;9.70;99.90
43946;DHT22;29599;51.196;4.428;2022-12-20T14:35:19;9.70;99.90
43946;DHT22;29599;51.196;4.428;2022-12-20T14:37:58;9.70;99.90
43946;DHT22;29599;51.196;4.428;2022-12-20T14:40:25;9.70;99.90
43946;DHT22;29599;51.196;4.428;2022-12-20T14:42:51;9.70;99.90
43946;DHT22;29599;51.196;4.428;2022-12-20T14:45:18;9.70;99.90
43946;DHT22;29599;51.196;4.428;2022-12-20T14:47:59;9.70;99.90
43946;DHT22;29599;51.196;4.428;2022-12-20T14:50:36;9.70;99.90
43946;DHT22;29599;51.196;4.428;2022-12-20T14:53:03;9.70;99.90
43946;DHT22;29599;51.196;4.428;2022-12-20T14:55:38;9.70;99.90
43946;DHT22;29599;51.196;4.428;2022-12-20T15:01:19;9.70;99.90
43946;DHT22;29599;51.196;4.428;2022-12-20T15:03:53;9.60;99.90
43946;DHT22;29599;51.196;4.428;2022-12-20T15:06:39;9.60;99.90
43946;DHT22;29599;51.196;4.428;2022-12-20T15:09:05;9.60;99.90
43946;DHT22;29599;51.196;4.428;2022-12-20T15:11:33;9.60;99.90
43946;DHT22;29599;51.196;4.428;2022-12-20T15:14:00;9.60;99.90
43946;DHT22;29599;51.196;4.428;2022-12-20T15:16:27;9.60;99.90
43946;DHT22;29599;51.196;4.428;2022-12-20T15:18:59;9.60;99.90
43946;DHT22;29599;51.196;4.428;2022-12-20T15:23:55;9.60;99.90
43946;DHT22;29599;51.196;4.428;2022-12-20T15:26:23;9.60;99.90
43946;DHT22;29599;51.196;4.428;2022-12-20T15:28:50;9.60;99.90
43946;DHT22;29599;51.196;4.428;2022-12-20T15:31:17;9.60;99.90
43946;DHT22;29599;51.196;4.428;2022-12-20T15:33:43;9.60;99.90
43946;DHT22;29599;51.196;4.428;2022-12-20T15:36:17;9.60;99.90
43946;DHT22;29599;51.196;4.428;2022-12-20T15:38:44;9.60;99.90
43946;DHT22;29599;51.196;4.428;2022-12-20T15:41:24;9.60;99.90
43946;DHT22;29599;51.196;4.428;2022-12-20T15:44:06;9.60;99.90
43946;DHT22;29599;51.196;4.428;2022-12-20T15:46:35;9.60;99.90
43946;DHT22;29599;51.196;4.428;2022-12-20T15:49:01;9.60;99.90
43946;DHT22;29599;51.196;4.428;2022-12-20T15:51:30;9.60;99.90
43946;DHT22;29599;51.196;4.428;2022-12-20T15:53:57;9.60;99.90
43946;DHT22;29599;51.196;4.428;2022-12-20T15:56:24;9.60;99.90
43946;DHT22;29599;51.196;4.428;2022-12-20T15:58:50;9.60;99.90
43946;DHT22;29599;51.196;4.428;2022-12-20T16:01:24;9.60;99.90
43946;DHT22;29599;51.196;4.428;2022-12-20T16:03:51;9.60;99.90
43946;DHT22;29599;51.196;4.428;2022-12-20T16:06:17;9.60;99.90
43946;DHT22;29599;51.196;4.428;2022-12-20T16:08:43;9.60;99.90
43946;DHT22;29599;51.196;4.428;2022-12-20T16:11:22;9.70;99.90
43946;DHT22;29599;51.196;4.428;2022-12-20T16:13:48;9.60;99.90
43946;DHT22;29599;51.196;4.428;2022-12-20T16:16:18;9.60;99.90
43946;DHT22;29599;51.196;4.428;2022-12-20T16:18:44;9.70;99.90
43946;DHT22;29599;51.196;4.428;2022-12-20T16:21:15;9.70;99.90
43946;DHT22;29599;51.196;4.428;2022-12-20T16:23:41;9.70;99.90
43946;DHT22;29599;51.196;4.428;2022-12-20T16:26:11;9.70;99.90
43946;DHT22;29599;51.196;4.428;2022-12-20T16:28:37;9.70;99.90
43946;DHT22;29599;51.196;4.428;2022-12-20T16:31:09;9.70;99.90
43946;DHT22;29599;51.196;4.428;2022-12-20T16:33:35;9.70;99.90
43946;DHT22;29599;51.196;4.428;2022-12-20T16:36:01;9.70;99.90
43946;DHT22;29599;51.196;4.428;2022-12-20T16:38:26;9.70;99.90
43946;DHT22;29599;51.196;4.428;2022-12-20T16:40:52;9.70;99.90
43946;DHT22;29599;51.196;4.428;2022-12-20T16:43:17;9.70;99.90
43946;DHT22;29599;51.196;4.428;2022-12-20T16:45:43;9.70;99.90
43946;DHT22;29599;51.196;4.428;2022-12-20T16:48:09;9.70;99.90
43946;DHT22;29599;51.196;4.428;2022-12-20T16:50:35;9.70;99.90
43946;DHT22;29599;51.196;4.428;2022-12-20T16:53:06;9.70;99.90
43946;DHT22;29599;51.196;4.428;2022-12-20T16:55:31;9.70;99.90
43946;DHT22;29599;51.196;4.428;2022-12-20T16:57:57;9.70;99.90
43946;DHT22;29599;51.196;4.428;2022-12-20T17:00:25;9.70;99.90
43946;DHT22;29599;51.196;4.428;2022-12-20T17:02:51;9.70;99.90
43946;DHT22;29599;51.196;4.428;2022-12-20T17:05:29;9.70;99.90
43946;DHT22;29599;51.196;4.428;2022-12-20T17:07:56;9.70;99.90
43946;DHT22;29599;51.196;4.428;2022-12-20T17:10:23;9.70;99.90
43946;DHT22;29599;51.196;4.428;2022-12-20T17:12:49;9.70;99.90
43946;DHT22;29599;51.196;4.428;2022-12-20T17:15:22;9.70;99.90
43946;DHT22;29599;51.196;4.428;2022-12-20T17:17:49;9.70;99.90
43946;DHT22;29599;51.196;4.428;2022-12-20T17:20:16;9.70;99.90
43946;DHT22;29599;51.196;4.428;2022-12-20T17:22:43;9.70;99.90
43946;DHT22;29599;51.196;4.428;2022-12-20T17:25:29;9.70;99.90
43946;DHT22;29599;51.196;4.428;2022-12-20T17:27:55;9.70;99.90
43946;DHT22;29599;51.196;4.428;2022-12-20T17:30:22;9.70;99.90
43946;DHT22;29599;51.196;4.428;2022-12-20T17:32:48;9.70;99.90
43946;DHT22;29599;51.196;4.428;2022-12-20T17:35:27;9.70;99.90
43946;DHT22;29599;51.196;4.428;2022-12-20T17:37:55;9.70;99.90
43946;DHT22;29599;51.196;4.428;2022-12-20T17:40:24;9.70;99.90
43946;DHT22;29599;51.196;4.428;2022-12-20T17:42:50;9.70;99.90
43946;DHT22;29599;51.196;4.428;2022-12-20T17:47:51;9.70;99.90
43946;DHT22;29599;51.196;4.428;2022-12-20T17:50:17;9.70;99.90
43946;DHT22;29599;51.196;4.428;2022-12-20T17:52:44;9.70;99.90
43946;DHT22;29599;51.196;4.428;2022-12-20T17:55:21;9.70;99.90